sensor_id;sensor_type;location;lat;lon;timestamp;temperature;humidity
20946;DHT22;10632;51.276;7.116;2023-08-20T00:02:02;20.10;99.90
20946;DHT22;10632;51.276;7.116;2023-08-20T00:04:31;20.10;99.90
20946;DHT22;10632;51.276;7.116;2023-08-20T00:07:01;20.00;99.90
20946;DHT22;10632;51.276;7.116;2023-08-20T00:09:29;20.10;99.90
20946;DHT22;10632;51.276;7.116;2023-08-20T00:11:57;20.00;99.90
20946;DHT22;10632;51.276;7.116;2023-08-20T00:14:51;20.00;99.90
20946;DHT22;10632;51.276;7.116;2023-08-20T00:17:18;19.90;99.90
20946;DHT22;10632;51.276;7.116;2023-08-20T00:19:47;19.90;99.90
20946;DHT22;10632;51.276;7.116;2023-08-20T00:22:15;19.90;99.90
20946;DHT22;10632;51.276;7.116;2023-08-20T00:24:43;19.90;99.90
20946;DHT22;10632;51.276;7.116;2023-08-20T00:27:11;19.90;99.90
20946;DHT22;10632;51.276;7.116;2023-08-20T00:29:38;19.80;99.90
20946;DHT22;10632;51.276;7.116;2023-08-20T00:32:05;19.80;99.90
20946;DHT22;10632;51.276;7.116;2023-08-20T00:34:33;19.80;99.90
20946;DHT22;10632;51.276;7.116;2023-08-20T00:37:01;19.80;99.90
20946;DHT22;10632;51.276;7.116;2023-08-20T00:39:28;19.80;99.90
20946;DHT22;10632;51.276;7.116;2023-08-20T00:41:55;19.80;99.90
20946;DHT22;10632;51.276;7.116;2023-08-20T00:44:23;19.80;99.90
20946;DHT22;10632;51.276;7.116;2023-08-20T00:46:51;19.80;99.90
20946;DHT22;10632;51.276;7.116;2023-08-20T00:49:18;19.70;99.90
20946;DHT22;10632;51.276;7.116;2023-08-20T00:51:45;19.70;99.90
20946;DHT22;10632;51.276;7.116;2023-08-20T00:54:12;19.70;99.90
20946;DHT22;10632;51.276;7.116;2023-08-20T00:56:39;19.70;99.90
20946;DHT22;10632;51.276;7.116;2023-08-20T00:59:06;19.70;99.90
20946;DHT22;10632;51.276;7.116;2023-08-20T01:01:35;19.70;99.90
20946;DHT22;10632;51.276;7.116;2023-08-20T01:04:01;19.70;99.90
20946;DHT22;10632;51.276;7.116;2023-08-20T01:06:43;19.70;99.90
20946;DHT22;10632;51.276;7.116;2023-08-20T01:09:19;19.70;99.90
20946;DHT22;10632;51.276;7.116;2023-08-20T01:11:54;19.60;99.90
20946;DHT22;10632;51.276;7.116;2023-08-20T01:14:22;19.60;99.90
20946;DHT22;10632;51.276;7.116;2023-08-20T01:16:51;19.60;99.90
20946;DHT22;10632;51.276;7.116;2023-08-20T01:19:21;19.60;99.90
20946;DHT22;10632;51.276;7.116;2023-08-20T01:22:02;19.60;99.90
20946;DHT22;10632;51.276;7.116;2023-08-20T01:24:43;19.50;99.90
20946;DHT22;10632;51.276;7.116;2023-08-20T01:27:19;19.50;99.90
20946;DHT22;10632;51.276;7.116;2023-08-20T01:29:54;19.40;99.90
20946;DHT22;10632;51.276;7.116;2023-08-20T01:32:23;19.40;99.90
20946;DHT22;10632;51.276;7.116;2023-08-20T01:34:51;19.40;99.90
20946;DHT22;10632;51.276;7.116;2023-08-20T01:37:18;19.40;99.90
20946;DHT22;10632;51.276;7.116;2023-08-20T01:39:45;19.30;99.90
20946;DHT22;10632;51.276;7.116;2023-08-20T01:42:12;19.30;99.90
20946;DHT22;10632;51.276;7.116;2023-08-20T01:44:39;19.30;99.90
20946;DHT22;10632;51.276;7.116;2023-08-20T01:47:07;19.30;99.90
20946;DHT22;10632;51.276;7.116;2023-08-20T01:49:34;19.30;99.90
20946;DHT22;10632;51.276;7.116;2023-08-20T01:52:01;19.30;99.90
20946;DHT22;10632;51.276;7.116;2023-08-20T01:54:28;19.30;99.90
20946;DHT22;10632;51.276;7.116;2023-08-20T01:56:55;19.30;99.90
20946;DHT22;10632;51.276;7.116;2023-08-20T01:59:22;19.30;99.90
20946;DHT22;10632;51.276;7.116;2023-08-20T02:01:49;19.30;99.90
20946;DHT22;10632;51.276;7.116;2023-08-20T02:04:17;19.30;99.90
20946;DHT22;10632;51.276;7.116;2023-08-20T02:06:44;19.30;99.90
20946;DHT22;10632;51.276;7.116;2023-08-20T02:09:11;19.20;99.90
20946;DHT22;10632;51.276;7.116;2023-08-20T02:11:38;19.20;99.90
20946;DHT22;10632;51.276;7.116;2023-08-20T02:14:05;19.20;99.90
20946;DHT22;10632;51.276;7.116;2023-08-20T02:16:32;19.20;99.90
20946;DHT22;10632;51.276;7.116;2023-08-20T02:18:59;19.20;99.90
20946;DHT22;10632;51.276;7.116;2023-08-20T02:21:28;19.20;99.90
20946;DHT22;10632;51.276;7.116;2023-08-20T02:23:55;19.20;99.90
20946;DHT22;10632;51.276;7.116;2023-08-20T02:26:22;19.20;99.90
20946;DHT22;10632;51.276;7.116;2023-08-20T02:28:49;19.20;99.90
20946;DHT22;10632;51.276;7.116;2023-08-20T02:31:16;19.20;99.90
20946;DHT22;10632;51.276;7.116;2023-08-20T02:33:42;19.20;99.90
20946;DHT22;10632;51.276;7.116;2023-08-20T02:36:09;19.20;99.90
20946;DHT22;10632;51.276;7.116;2023-08-20T02:38:38;19.20;99.90
20946;DHT22;10632;51.276;7.116;2023-08-20T02:41:05;19.20;99.90
20946;DHT22;10632;51.276;7.116;2023-08-20T02:43:31;19.20;99.90
20946;DHT22;10632;51.276;7.116;2023-08-20T02:45:58;19.20;99.90
20946;DHT22;10632;51.276;7.116;2023-08-20T02:48:25;19.20;99.90
20946;DHT22;10632;51.276;7.116;2023-08-20T02:50:52;19.30;99.90
20946;DHT22;10632;51.276;7.116;2023-08-20T02:53:19;19.30;99.90
20946;DHT22;10632;51.276;7.116;2023-08-20T02:55:48;19.30;99.90
20946;DHT22;10632;51.276;7.116;2023-08-20T02:58:15;19.30;99.90
20946;DHT22;10632;51.276;7.116;2023-08-20T03:00:42;19.30;99.90
20946;DHT22;10632;51.276;7.116;2023-08-20T03:03:09;19.30;99.90
20946;DHT22;10632;51.276;7.116;2023-08-20T03:05:36;19.30;99.90
20946;DHT22;10632;51.276;7.116;2023-08-20T03:08:04;19.30;99.90
20946;DHT22;10632;51.276;7.116;2023-08-20T03:10:31;19.30;99.90
20946;DHT22;10632;51.276;7.116;2023-08-20T03:12:59;19.30;99.90
20946;DHT22;10632;51.276;7.116;2023-08-20T03:15:27;19.30;99.90
20946;DHT22;10632;51.276;7.116;2023-08-20T03:17:53;19.30;99.90
20946;DHT22;10632;51.276;7.116;2023-08-20T03:20:20;19.40;99.90
20946;DHT22;10632;51.276;7.116;2023-08-20T03:22:47;19.40;99.90
20946;DHT22;10632;51.276;7.116;2023-08-20T03:25:14;19.30;99.90
20946;DHT22;10632;51.276;7.116;2023-08-20T03:27:41;19.30;99.90
20946;DHT22;10632;51.276;7.116;2023-08-20T03:30:10;19.30;99.90
20946;DHT22;10632;51.276;7.116;2023-08-20T03:32:37;19.30;99.90
20946;DHT22;10632;51.276;7.116;2023-08-20T03:35:04;19.30;99.90
20946;DHT22;10632;51.276;7.116;2023-08-20T03:37:31;19.30;99.90
20946;DHT22;10632;51.276;7.116;2023-08-20T03:39:58;19.30;99.90
20946;DHT22;10632;51.276;7.116;2023-08-20T03:42:25;19.30;99.90
20946;DHT22;10632;51.276;7.116;2023-08-20T03:44:52;19.30;99.90
20946;DHT22;10632;51.276;7.116;2023-08-20T03:47:20;19.30;99.90
20946;DHT22;10632;51.276;7.116;2023-08-20T03:49:47;19.30;99.90
20946;DHT22;10632;51.276;7.116;2023-08-20T03:52:14;19.30;99.90
20946;DHT22;10632;51.276;7.116;2023-08-20T03:54:41;19.30;99.90
20946;DHT22;10632;51.276;7.116;2023-08-20T03:57:08;19.30;99.90
20946;DHT22;10632;51.276;7.116;2023-08-20T03:59:35;19.30;99.90
20946;DHT22;10632;51.276;7.116;2023-08-20T04:02:02;19.30;99.90
20946;DHT22;10632;51.276;7.116;2023-08-20T04:04:31;19.30;99.90
20946;DHT22;10632;51.276;7.116;2023-08-20T04:06:58;19.30;99.90
20946;DHT22;10632;51.276;7.116;2023-08-20T04:09:25;19.30;99.90
20946;DHT22;10632;51.276;7.116;2023-08-20T04:11:52;19.30;99.90
20946;DHT22;10632;51.276;7.116;2023-08-20T04:14:18;19.30;99.90
20946;DHT22;10632;51.276;7.116;2023-08-20T04:16:45;19.30;99.90
20946;DHT22;10632;51.276;7.116;2023-08-20T04:19:12;19.30;99.90
20946;DHT22;10632;51.276;7.116;2023-08-20T04:21:40;19.30;99.90
20946;DHT22;10632;51.276;7.116;2023-08-20T04:24:07;19.20;99.90
20946;DHT22;10632;51.276;7.116;2023-08-20T04:26:34;19.20;99.90
20946;DHT22;10632;51.276;7.116;2023-08-20T04:29:01;19.20;99.90
20946;DHT22;10632;51.276;7.116;2023-08-20T04:31:28;19.20;99.90
20946;DHT22;10632;51.276;7.116;2023-08-20T04:33:55;19.20;99.90
20946;DHT22;10632;51.276;7.116;2023-08-20T04:36:22;19.20;99.90
20946;DHT22;10632;51.276;7.116;2023-08-20T04:38:50;19.20;99.90
20946;DHT22;10632;51.276;7.116;2023-08-20T04:41:17;19.10;99.90
20946;DHT22;10632;51.276;7.116;2023-08-20T04:43:44;19.10;99.90
20946;DHT22;10632;51.276;7.116;2023-08-20T04:46:10;19.10;99.90
20946;DHT22;10632;51.276;7.116;2023-08-20T04:48:37;19.10;99.90
20946;DHT22;10632;51.276;7.116;2023-08-20T04:51:05;19.10;99.90
20946;DHT22;10632;51.276;7.116;2023-08-20T04:53:32;19.10;99.90
20946;DHT22;10632;51.276;7.116;2023-08-20T04:56:00;19.10;99.90
20946;DHT22;10632;51.276;7.116;2023-08-20T04:58:28;19.10;99.90
20946;DHT22;10632;51.276;7.116;2023-08-20T05:00:55;19.10;99.90
20946;DHT22;10632;51.276;7.116;2023-08-20T05:03:22;19.10;99.90
20946;DHT22;10632;51.276;7.116;2023-08-20T05:05:49;19.10;99.90
20946;DHT22;10632;51.276;7.116;2023-08-20T05:08:16;19.10;99.90
20946;DHT22;10632;51.276;7.116;2023-08-20T05:10:43;19.10;99.90
20946;DHT22;10632;51.276;7.116;2023-08-20T05:13:12;19.10;99.90
20946;DHT22;10632;51.276;7.116;2023-08-20T05:15:38;19.10;99.90
20946;DHT22;10632;51.276;7.116;2023-08-20T05:18:05;19.10;99.90
20946;DHT22;10632;51.276;7.116;2023-08-20T05:20:32;19.20;99.90
20946;DHT22;10632;51.276;7.116;2023-08-20T05:22:59;19.20;99.90
20946;DHT22;10632;51.276;7.116;2023-08-20T05:25:27;19.10;99.90
20946;DHT22;10632;51.276;7.116;2023-08-20T05:27:54;19.20;99.90
20946;DHT22;10632;51.276;7.116;2023-08-20T05:30:22;19.20;99.90
20946;DHT22;10632;51.276;7.116;2023-08-20T05:32:49;19.20;99.90
20946;DHT22;10632;51.276;7.116;2023-08-20T05:35:16;19.20;99.90
20946;DHT22;10632;51.276;7.116;2023-08-20T05:37:43;19.20;99.90
20946;DHT22;10632;51.276;7.116;2023-08-20T05:40:10;19.20;99.90
20946;DHT22;10632;51.276;7.116;2023-08-20T05:42:37;19.20;99.90
20946;DHT22;10632;51.276;7.116;2023-08-20T05:45:04;19.20;99.90
20946;DHT22;10632;51.276;7.116;2023-08-20T05:47:32;19.20;99.90
20946;DHT22;10632;51.276;7.116;2023-08-20T05:49:59;19.20;99.90
20946;DHT22;10632;51.276;7.116;2023-08-20T05:52:26;19.20;99.90
20946;DHT22;10632;51.276;7.116;2023-08-20T05:54:53;19.20;99.90
20946;DHT22;10632;51.276;7.116;2023-08-20T05:57:19;19.20;99.90
20946;DHT22;10632;51.276;7.116;2023-08-20T05:59:46;19.20;99.90
20946;DHT22;10632;51.276;7.116;2023-08-20T06:02:16;19.20;99.90
20946;DHT22;10632;51.276;7.116;2023-08-20T06:04:45;19.30;99.90
20946;DHT22;10632;51.276;7.116;2023-08-20T06:07:12;19.30;99.90
20946;DHT22;10632;51.276;7.116;2023-08-20T06:09:38;19.30;99.90
20946;DHT22;10632;51.276;7.116;2023-08-20T06:12:06;19.30;99.90
20946;DHT22;10632;51.276;7.116;2023-08-20T06:14:33;19.30;99.90
20946;DHT22;10632;51.276;7.116;2023-08-20T06:17:00;19.30;99.90
20946;DHT22;10632;51.276;7.116;2023-08-20T06:19:28;19.30;99.90
20946;DHT22;10632;51.276;7.116;2023-08-20T06:21:56;19.30;99.90
20946;DHT22;10632;51.276;7.116;2023-08-20T06:24:23;19.40;99.90
20946;DHT22;10632;51.276;7.116;2023-08-20T06:26:51;19.40;99.90
20946;DHT22;10632;51.276;7.116;2023-08-20T06:29:18;19.40;99.90
20946;DHT22;10632;51.276;7.116;2023-08-20T06:31:47;19.40;99.90
20946;DHT22;10632;51.276;7.116;2023-08-20T06:34:14;19.50;99.90
20946;DHT22;10632;51.276;7.116;2023-08-20T06:36:40;19.50;99.90
20946;DHT22;10632;51.276;7.116;2023-08-20T06:39:09;19.50;99.90
20946;DHT22;10632;51.276;7.116;2023-08-20T06:41:36;19.60;99.90
20946;DHT22;10632;51.276;7.116;2023-08-20T06:44:03;19.60;99.90
20946;DHT22;10632;51.276;7.116;2023-08-20T06:46:30;19.70;99.90
20946;DHT22;10632;51.276;7.116;2023-08-20T06:48:57;19.70;99.90
20946;DHT22;10632;51.276;7.116;2023-08-20T06:51:24;19.70;99.90
20946;DHT22;10632;51.276;7.116;2023-08-20T06:53:53;19.70;99.90
20946;DHT22;10632;51.276;7.116;2023-08-20T06:56:22;19.80;99.90
20946;DHT22;10632;51.276;7.116;2023-08-20T06:58:49;19.90;99.90
20946;DHT22;10632;51.276;7.116;2023-08-20T07:01:15;19.90;99.90
20946;DHT22;10632;51.276;7.116;2023-08-20T07:03:44;19.90;99.90
20946;DHT22;10632;51.276;7.116;2023-08-20T07:06:11;20.00;99.90
20946;DHT22;10632;51.276;7.116;2023-08-20T07:08:39;20.00;99.90
20946;DHT22;10632;51.276;7.116;2023-08-20T07:11:07;20.10;99.90
20946;DHT22;10632;51.276;7.116;2023-08-20T07:13:35;20.10;99.90
20946;DHT22;10632;51.276;7.116;2023-08-20T07:16:02;20.20;99.90
20946;DHT22;10632;51.276;7.116;2023-08-20T07:18:29;20.20;99.90
20946;DHT22;10632;51.276;7.116;2023-08-20T07:20:56;20.30;99.90
20946;DHT22;10632;51.276;7.116;2023-08-20T07:23:23;20.40;99.90
20946;DHT22;10632;51.276;7.116;2023-08-20T07:25:50;20.50;99.90
20946;DHT22;10632;51.276;7.116;2023-08-20T07:28:18;20.50;99.90
20946;DHT22;10632;51.276;7.116;2023-08-20T07:30:53;20.60;99.90
20946;DHT22;10632;51.276;7.116;2023-08-20T07:33:20;20.70;99.90
20946;DHT22;10632;51.276;7.116;2023-08-20T07:35:47;20.80;99.90
20946;DHT22;10632;51.276;7.116;2023-08-20T07:38:14;20.90;99.90
20946;DHT22;10632;51.276;7.116;2023-08-20T07:40:41;20.90;99.90
20946;DHT22;10632;51.276;7.116;2023-08-20T07:43:08;21.00;99.90
20946;DHT22;10632;51.276;7.116;2023-08-20T07:45:34;21.10;99.90
20946;DHT22;10632;51.276;7.116;2023-08-20T07:48:03;21.10;99.90
20946;DHT22;10632;51.276;7.116;2023-08-20T07:50:30;21.10;99.90
20946;DHT22;10632;51.276;7.116;2023-08-20T07:52:57;21.20;99.90
20946;DHT22;10632;51.276;7.116;2023-08-20T07:55:24;21.20;99.90
20946;DHT22;10632;51.276;7.116;2023-08-20T07:57:51;21.20;99.90
20946;DHT22;10632;51.276;7.116;2023-08-20T08:00:18;21.30;99.90
20946;DHT22;10632;51.276;7.116;2023-08-20T08:02:45;21.30;99.90
20946;DHT22;10632;51.276;7.116;2023-08-20T08:05:13;21.40;99.90
20946;DHT22;10632;51.276;7.116;2023-08-20T08:07:40;21.40;99.90
20946;DHT22;10632;51.276;7.116;2023-08-20T08:10:08;21.40;99.90
20946;DHT22;10632;51.276;7.116;2023-08-20T08:12:35;21.40;99.90
20946;DHT22;10632;51.276;7.116;2023-08-20T08:15:04;21.50;99.90
20946;DHT22;10632;51.276;7.116;2023-08-20T08:17:31;21.60;99.90
20946;DHT22;10632;51.276;7.116;2023-08-20T08:19:58;21.70;99.90
20946;DHT22;10632;51.276;7.116;2023-08-20T08:22:26;21.70;99.90
20946;DHT22;10632;51.276;7.116;2023-08-20T08:24:53;21.70;99.90
20946;DHT22;10632;51.276;7.116;2023-08-20T08:27:20;21.70;99.90
20946;DHT22;10632;51.276;7.116;2023-08-20T08:29:47;21.80;99.90
20946;DHT22;10632;51.276;7.116;2023-08-20T08:32:14;21.90;99.90
20946;DHT22;10632;51.276;7.116;2023-08-20T08:34:41;21.80;99.90
20946;DHT22;10632;51.276;7.116;2023-08-20T08:37:08;21.90;99.90
20946;DHT22;10632;51.276;7.116;2023-08-20T08:39:36;22.00;99.90
20946;DHT22;10632;51.276;7.116;2023-08-20T08:42:04;22.00;99.90
20946;DHT22;10632;51.276;7.116;2023-08-20T08:44:33;22.10;99.90
20946;DHT22;10632;51.276;7.116;2023-08-20T08:47:00;22.10;99.90
20946;DHT22;10632;51.276;7.116;2023-08-20T08:49:28;22.20;99.90
20946;DHT22;10632;51.276;7.116;2023-08-20T08:51:56;22.30;99.90
20946;DHT22;10632;51.276;7.116;2023-08-20T08:54:23;22.40;99.90
20946;DHT22;10632;51.276;7.116;2023-08-20T08:56:52;22.40;99.90
20946;DHT22;10632;51.276;7.116;2023-08-20T08:59:19;22.50;99.90
20946;DHT22;10632;51.276;7.116;2023-08-20T09:01:47;22.50;99.90
20946;DHT22;10632;51.276;7.116;2023-08-20T09:04:13;22.60;99.90
20946;DHT22;10632;51.276;7.116;2023-08-20T09:06:47;22.60;99.90
20946;DHT22;10632;51.276;7.116;2023-08-20T09:09:16;22.70;99.90
20946;DHT22;10632;51.276;7.116;2023-08-20T09:11:42;22.80;99.90
20946;DHT22;10632;51.276;7.116;2023-08-20T09:14:20;22.80;99.90
20946;DHT22;10632;51.276;7.116;2023-08-20T09:16:54;22.90;99.90
20946;DHT22;10632;51.276;7.116;2023-08-20T09:19:21;22.90;99.90
20946;DHT22;10632;51.276;7.116;2023-08-20T09:21:48;23.00;99.90
20946;DHT22;10632;51.276;7.116;2023-08-20T09:24:15;23.10;99.90
20946;DHT22;10632;51.276;7.116;2023-08-20T09:26:45;23.10;99.90
20946;DHT22;10632;51.276;7.116;2023-08-20T09:29:13;23.20;99.90
20946;DHT22;10632;51.276;7.116;2023-08-20T09:31:40;23.20;99.90
20946;DHT22;10632;51.276;7.116;2023-08-20T09:34:12;23.20;99.90
20946;DHT22;10632;51.276;7.116;2023-08-20T09:36:39;23.20;99.90
20946;DHT22;10632;51.276;7.116;2023-08-20T09:39:06;23.10;99.90
20946;DHT22;10632;51.276;7.116;2023-08-20T09:41:33;23.10;99.90
20946;DHT22;10632;51.276;7.116;2023-08-20T09:44:02;23.10;99.90
20946;DHT22;10632;51.276;7.116;2023-08-20T09:46:34;23.10;99.90
20946;DHT22;10632;51.276;7.116;2023-08-20T09:49:02;23.10;99.90
20946;DHT22;10632;51.276;7.116;2023-08-20T09:51:33;23.10;99.90
20946;DHT22;10632;51.276;7.116;2023-08-20T09:54:10;23.30;99.90
20946;DHT22;10632;51.276;7.116;2023-08-20T09:56:40;23.30;99.90
20946;DHT22;10632;51.276;7.116;2023-08-20T09:59:07;23.40;99.90
20946;DHT22;10632;51.276;7.116;2023-08-20T10:01:37;23.50;99.90
20946;DHT22;10632;51.276;7.116;2023-08-20T10:04:05;23.60;99.90
20946;DHT22;10632;51.276;7.116;2023-08-20T10:06:33;23.80;99.90
20946;DHT22;10632;51.276;7.116;2023-08-20T10:09:01;23.90;99.90
20946;DHT22;10632;51.276;7.116;2023-08-20T10:11:29;23.90;99.90
20946;DHT22;10632;51.276;7.116;2023-08-20T10:13:56;24.00;99.90
20946;DHT22;10632;51.276;7.116;2023-08-20T10:16:24;24.00;99.90
20946;DHT22;10632;51.276;7.116;2023-08-20T10:18:55;24.00;99.90
20946;DHT22;10632;51.276;7.116;2023-08-20T10:21:24;23.90;99.90
20946;DHT22;10632;51.276;7.116;2023-08-20T10:23:53;23.90;99.90
20946;DHT22;10632;51.276;7.116;2023-08-20T10:26:20;23.90;99.90
20946;DHT22;10632;51.276;7.116;2023-08-20T10:28:49;23.90;99.90
20946;DHT22;10632;51.276;7.116;2023-08-20T10:31:17;23.90;99.90
20946;DHT22;10632;51.276;7.116;2023-08-20T10:33:49;24.00;99.90
20946;DHT22;10632;51.276;7.116;2023-08-20T10:36:20;24.20;99.90
20946;DHT22;10632;51.276;7.116;2023-08-20T10:38:49;24.40;99.90
20946;DHT22;10632;51.276;7.116;2023-08-20T10:41:16;24.50;99.90
20946;DHT22;10632;51.276;7.116;2023-08-20T10:43:50;24.60;99.90
20946;DHT22;10632;51.276;7.116;2023-08-20T10:46:20;24.80;99.90
20946;DHT22;10632;51.276;7.116;2023-08-20T10:48:48;25.00;99.90
20946;DHT22;10632;51.276;7.116;2023-08-20T10:51:18;25.20;99.90
20946;DHT22;10632;51.276;7.116;2023-08-20T10:54:02;25.30;99.90
20946;DHT22;10632;51.276;7.116;2023-08-20T10:56:38;25.20;99.90
20946;DHT22;10632;51.276;7.116;2023-08-20T10:59:08;25.00;99.90
20946;DHT22;10632;51.276;7.116;2023-08-20T11:01:35;24.80;99.90
20946;DHT22;10632;51.276;7.116;2023-08-20T11:04:03;24.80;99.90
20946;DHT22;10632;51.276;7.116;2023-08-20T11:06:34;24.80;99.90
20946;DHT22;10632;51.276;7.116;2023-08-20T11:09:01;24.90;99.90
20946;DHT22;10632;51.276;7.116;2023-08-20T11:11:31;25.00;99.90
20946;DHT22;10632;51.276;7.116;2023-08-20T11:14:05;25.10;99.90
20946;DHT22;10632;51.276;7.116;2023-08-20T11:16:33;25.10;99.90
20946;DHT22;10632;51.276;7.116;2023-08-20T11:19:00;25.00;99.90
20946;DHT22;10632;51.276;7.116;2023-08-20T11:21:28;25.00;99.90
20946;DHT22;10632;51.276;7.116;2023-08-20T11:23:57;24.90;99.90
20946;DHT22;10632;51.276;7.116;2023-08-20T11:26:24;24.90;99.90
20946;DHT22;10632;51.276;7.116;2023-08-20T11:28:54;24.90;99.90
20946;DHT22;10632;51.276;7.116;2023-08-20T11:31:21;25.00;99.90
20946;DHT22;10632;51.276;7.116;2023-08-20T11:33:49;25.10;99.90
20946;DHT22;10632;51.276;7.116;2023-08-20T11:36:16;25.20;99.90
20946;DHT22;10632;51.276;7.116;2023-08-20T11:38:50;25.30;99.90
20946;DHT22;10632;51.276;7.116;2023-08-20T11:41:19;25.40;99.90
20946;DHT22;10632;51.276;7.116;2023-08-20T11:43:50;25.50;99.90
20946;DHT22;10632;51.276;7.116;2023-08-20T11:46:19;25.50;99.90
20946;DHT22;10632;51.276;7.116;2023-08-20T11:49:00;25.50;99.90
20946;DHT22;10632;51.276;7.116;2023-08-20T11:51:28;25.60;99.90
20946;DHT22;10632;51.276;7.116;2023-08-20T11:53:55;25.70;99.90
20946;DHT22;10632;51.276;7.116;2023-08-20T11:56:23;25.80;99.90
20946;DHT22;10632;51.276;7.116;2023-08-20T11:58:50;26.00;99.90
20946;DHT22;10632;51.276;7.116;2023-08-20T12:01:18;26.10;99.90
20946;DHT22;10632;51.276;7.116;2023-08-20T12:03:47;26.30;99.90
20946;DHT22;10632;51.276;7.116;2023-08-20T12:06:19;26.40;99.90
20946;DHT22;10632;51.276;7.116;2023-08-20T12:08:46;26.40;99.90
20946;DHT22;10632;51.276;7.116;2023-08-20T12:11:13;26.40;99.90
20946;DHT22;10632;51.276;7.116;2023-08-20T12:13:41;26.40;99.90
20946;DHT22;10632;51.276;7.116;2023-08-20T12:16:08;26.30;99.90
20946;DHT22;10632;51.276;7.116;2023-08-20T12:18:35;26.40;99.90
20946;DHT22;10632;51.276;7.116;2023-08-20T12:21:05;26.40;99.90
20946;DHT22;10632;51.276;7.116;2023-08-20T12:23:32;26.40;99.90
20946;DHT22;10632;51.276;7.116;2023-08-20T12:25:58;26.50;99.90
20946;DHT22;10632;51.276;7.116;2023-08-20T12:28:25;26.60;99.90
20946;DHT22;10632;51.276;7.116;2023-08-20T12:30:54;26.70;99.90
20946;DHT22;10632;51.276;7.116;2023-08-20T12:33:24;26.60;99.90
20946;DHT22;10632;51.276;7.116;2023-08-20T12:35:54;26.50;99.90
20946;DHT22;10632;51.276;7.116;2023-08-20T12:38:21;26.30;99.90
20946;DHT22;10632;51.276;7.116;2023-08-20T12:40:48;26.30;99.90
20946;DHT22;10632;51.276;7.116;2023-08-20T12:43:15;26.30;99.90
20946;DHT22;10632;51.276;7.116;2023-08-20T12:45:42;26.40;99.90
20946;DHT22;10632;51.276;7.116;2023-08-20T12:48:11;26.40;99.90
20946;DHT22;10632;51.276;7.116;2023-08-20T12:50:38;26.50;99.90
20946;DHT22;10632;51.276;7.116;2023-08-20T12:53:05;26.50;99.90
20946;DHT22;10632;51.276;7.116;2023-08-20T12:55:31;26.50;99.90
20946;DHT22;10632;51.276;7.116;2023-08-20T12:57:59;26.50;99.90
20946;DHT22;10632;51.276;7.116;2023-08-20T13:00:27;26.40;99.90
20946;DHT22;10632;51.276;7.116;2023-08-20T13:02:55;26.40;99.90
20946;DHT22;10632;51.276;7.116;2023-08-20T13:05:24;26.40;99.90
20946;DHT22;10632;51.276;7.116;2023-08-20T13:07:52;26.50;99.90
20946;DHT22;10632;51.276;7.116;2023-08-20T13:10:21;26.50;99.90
20946;DHT22;10632;51.276;7.116;2023-08-20T13:12:50;26.50;99.90
20946;DHT22;10632;51.276;7.116;2023-08-20T13:15:20;26.50;99.90
20946;DHT22;10632;51.276;7.116;2023-08-20T13:17:48;26.50;99.90
20946;DHT22;10632;51.276;7.116;2023-08-20T13:20:16;26.60;99.90
20946;DHT22;10632;51.276;7.116;2023-08-20T13:22:48;26.60;99.90
20946;DHT22;10632;51.276;7.116;2023-08-20T13:25:15;26.60;99.90
20946;DHT22;10632;51.276;7.116;2023-08-20T13:27:42;26.50;99.90
20946;DHT22;10632;51.276;7.116;2023-08-20T13:30:09;26.60;99.90
20946;DHT22;10632;51.276;7.116;2023-08-20T13:32:37;26.60;99.90
20946;DHT22;10632;51.276;7.116;2023-08-20T13:35:05;26.60;99.90
20946;DHT22;10632;51.276;7.116;2023-08-20T13:37:33;26.60;99.90
20946;DHT22;10632;51.276;7.116;2023-08-20T13:40:02;26.70;99.90
20946;DHT22;10632;51.276;7.116;2023-08-20T13:42:32;26.70;99.90
20946;DHT22;10632;51.276;7.116;2023-08-20T13:44:58;26.70;99.90
20946;DHT22;10632;51.276;7.116;2023-08-20T13:47:25;26.70;99.90
20946;DHT22;10632;51.276;7.116;2023-08-20T13:49:52;26.70;99.90
20946;DHT22;10632;51.276;7.116;2023-08-20T13:52:19;26.60;99.90
20946;DHT22;10632;51.276;7.116;2023-08-20T13:54:46;26.60;99.90
20946;DHT22;10632;51.276;7.116;2023-08-20T13:57:14;26.60;99.90
20946;DHT22;10632;51.276;7.116;2023-08-20T13:59:41;26.60;99.90
20946;DHT22;10632;51.276;7.116;2023-08-20T14:02:11;26.50;99.90
20946;DHT22;10632;51.276;7.116;2023-08-20T14:04:38;26.50;99.90
20946;DHT22;10632;51.276;7.116;2023-08-20T14:07:05;26.50;99.90
20946;DHT22;10632;51.276;7.116;2023-08-20T14:09:32;26.50;99.90
20946;DHT22;10632;51.276;7.116;2023-08-20T14:12:00;26.50;99.90
20946;DHT22;10632;51.276;7.116;2023-08-20T14:14:28;26.60;99.90
20946;DHT22;10632;51.276;7.116;2023-08-20T14:16:55;26.60;99.90
20946;DHT22;10632;51.276;7.116;2023-08-20T14:19:22;26.50;99.90
20946;DHT22;10632;51.276;7.116;2023-08-20T14:21:52;26.50;99.90
20946;DHT22;10632;51.276;7.116;2023-08-20T14:24:21;26.50;99.90
20946;DHT22;10632;51.276;7.116;2023-08-20T14:26:48;26.50;99.90
20946;DHT22;10632;51.276;7.116;2023-08-20T14:29:15;26.50;99.90
20946;DHT22;10632;51.276;7.116;2023-08-20T14:31:43;26.50;99.90
20946;DHT22;10632;51.276;7.116;2023-08-20T14:34:10;26.50;99.90
20946;DHT22;10632;51.276;7.116;2023-08-20T14:36:37;26.40;99.90
20946;DHT22;10632;51.276;7.116;2023-08-20T14:39:05;26.50;99.90
20946;DHT22;10632;51.276;7.116;2023-08-20T14:41:32;26.40;99.90
20946;DHT22;10632;51.276;7.116;2023-08-20T14:43:59;26.40;99.90
20946;DHT22;10632;51.276;7.116;2023-08-20T14:46:26;26.50;99.90
20946;DHT22;10632;51.276;7.116;2023-08-20T14:48:54;26.40;99.90
20946;DHT22;10632;51.276;7.116;2023-08-20T14:51:21;26.40;99.90
20946;DHT22;10632;51.276;7.116;2023-08-20T14:53:51;26.40;99.90
20946;DHT22;10632;51.276;7.116;2023-08-20T14:56:18;26.30;99.90
20946;DHT22;10632;51.276;7.116;2023-08-20T14:58:45;26.30;99.90
20946;DHT22;10632;51.276;7.116;2023-08-20T15:01:12;26.20;99.90
20946;DHT22;10632;51.276;7.116;2023-08-20T15:03:39;26.10;99.90
20946;DHT22;10632;51.276;7.116;2023-08-20T15:06:07;26.10;99.90
20946;DHT22;10632;51.276;7.116;2023-08-20T15:08:34;26.00;99.90
20946;DHT22;10632;51.276;7.116;2023-08-20T15:11:01;26.00;99.90
20946;DHT22;10632;51.276;7.116;2023-08-20T15:13:32;26.00;99.90
20946;DHT22;10632;51.276;7.116;2023-08-20T15:15:59;26.10;99.90
20946;DHT22;10632;51.276;7.116;2023-08-20T15:18:25;26.00;99.90
20946;DHT22;10632;51.276;7.116;2023-08-20T15:20:55;26.00;99.90
20946;DHT22;10632;51.276;7.116;2023-08-20T15:23:24;25.90;99.90
20946;DHT22;10632;51.276;7.116;2023-08-20T15:25:53;25.90;99.90
20946;DHT22;10632;51.276;7.116;2023-08-20T15:28:21;25.90;99.90
20946;DHT22;10632;51.276;7.116;2023-08-20T15:30:50;25.80;99.90
20946;DHT22;10632;51.276;7.116;2023-08-20T15:33:17;25.70;99.90
20946;DHT22;10632;51.276;7.116;2023-08-20T15:35:44;25.70;99.90